Amma, WV

9:30 PM EDT on October 24, 2014 (GMT -0400)
Park Avenue | Change Station
CLOSE
Current Station
Personal Weather Station
Location: Spencer, WV
Elevation: 820 ft
Nearby Weather Stations

Elev 820 ft 38.79 °N, 81.36 °W | Updated 2 seconds ago

Clear
Clear
44.3 °F
Feels Like 44 °F
N
0.0
Wind Variable Wind from WNW
Gusts 0.0 mph

Today
High -- | Low -- °F
--% Chance of Precip.
Yesterday
High -- | Low -- °F
Precip. -- in
7:43 AM 6:34 PM
New Moon, 1% visible
Pressure 30.06 in
Visibility 10.0 miles
Clouds Clear
Windchill 44 °F
Dew Point 41 °F
Humidity 87%
Rainfall 0.00 in
Snow Depth Not available.
UV 0 out of 12
Pollen .40 out of 12
Air Quality Not available.
Flu Activity Sporadic
METAR KCRW 250054Z 15004KT 10SM CLR 08/06 A3005 RMK AO2 SLP177 T00830056

More Conditions Fewer Conditions

Pressure 30.06 in
Visibility 10.0 miles
Clouds Clear
Windchill 44 °F
Dew Point 41 °F
Humidity 87%
Rainfall 0.00 in
Snow Depth Not available.
UV 0 out of 12
Pollen .40 out of 12
Air Quality Not available.
Flu Activity Sporadic
METAR KCRW 250054Z 15004KT 10SM CLR 08/06 A3005 RMK AO2 SLP177 T00830056

More Conditions Fewer Conditions

10-Day Weather Forecast

Almanac

Astronomy

Oct. 24, 2014 Rise Set
Actual Time 7:43 AM EDT 6:34 PM EDT
Civil Twilight 7:16 AM EDT 7:01 PM EDT
Nautical Twilight 6:45 AM EDT 7:32 PM EDT
Astronomical Twilight 6:14 AM EDT 8:03 PM EDT
Moon 8:20 AM EDT (10/24) 7:14 PM EDT (10/24)
Length of Visible Light 11h 45m
Length of Day
10h 51m
Tomorrow will be 2m 18s shorter.
New Moon, 1% of the Moon is Illuminated
Today
New Moon
Oct 30
First Quarter
Nov 6
Full
Nov 14
Last Quarter
Nov 22
New

Today's Extremes

State Highs State Lows

Community

WunderPhotos

Upload Photos

1,764,741 photos uploaded!

WunderBlogs® & News

Nearby

Snow Depth

Station Depth Elevation
No new snow has been reported.

Earthquake Activity

City Distance Mag. Time & Date
No recent earthquake activity has been reported nearby.
Minimum magnitude displayed is 2.5.

Coastal Water Temperatures

Place Temperature
No Stations Reporting

Nearby Weather Stations